VEJS/IXW METAR and TAF weather

Enter ICAO airport designator
Station Type Date Time Source
VEJS METAR 2020/10/20 12:00 UTC NOAA

VEJS 201200Z 00000KT 2000 HZ NSC 30/24 Q1005


Station Type Date Time Source
VEJS Decoded METAR 2020/10/20 12:00 UTC NOAA

Jamshedpur, India (VEJS) 22-49N 086-11E 142M
Oct 20, 2020 - 08:00 AM EDT / 2020.10.20 1200 UTC
Wind: Calm:0
Visibility: 1 mile(s):0
Weather: haze
Temperature: 86 F (30 C)
Heat index: 95.0 F (35.0 C):1
Dew Point: 75 F (24 C)
Relative Humidity: 70%
Pressure (altimeter): 29.68 in. Hg (1005 hPa)
ob: VEJS 201200Z 00000KT 2000 HZ NSC 30/24 Q1005
cycle: 12

Station Type Date Time Source
VEJS TAF 2009/11/01 09:00 UTC NOAA

TAF VEJS 010900Z 0112/0121 36004KT 2500 HZ FEW020 SCT025 SCT100
BECMG 0116/0118 00000KT 2000 HZ FEW018 SCT
BECMG 0119/0121 00000KT 1600 BR

Example: see airport list